createdAt,value
2019-01-03T00:01:13.874Z,-1.95
2019-01-03T00:03:08.918Z,-1.89
2019-01-03T00:05:06.042Z,-1.95
2019-01-03T00:07:11.256Z,-1.87
2019-01-03T00:09:17.306Z,-1.84
2019-01-03T00:11:25.471Z,-1.80
2019-01-03T00:13:18.902Z,-1.82
2019-01-03T00:15:13.647Z,-1.76
2019-01-03T00:17:11.356Z,-1.74
2019-01-03T00:19:14.592Z,-1.73
2019-01-03T00:21:07.253Z,-1.65
2019-01-03T00:23:02.023Z,-1.61
2019-01-03T00:25:10.508Z,-1.64
2019-01-03T00:27:15.539Z,-1.59
2019-01-03T00:29:12.821Z,-1.52
2019-01-03T00:31:12.758Z,-1.46
2019-01-03T00:33:01.436Z,-1.49
2019-01-03T00:35:08.265Z,-1.53
2019-01-03T00:37:06.762Z,-1.39
2019-01-03T00:39:03.497Z,-1.37
2019-01-03T00:40:59.298Z,-1.36
2019-01-03T00:42:59.703Z,-1.36
2019-01-03T00:44:56.385Z,-1.31
2019-01-03T00:46:49.872Z,-1.32
2019-01-03T00:48:50.187Z,-1.41
2019-01-03T00:51:00.387Z,-1.39
2019-01-03T00:52:51.908Z,-1.46
2019-01-03T00:55:09.020Z,-1.41
2019-01-03T00:57:07.512Z,-1.34
2019-01-03T00:59:19.655Z,-1.31
2019-01-03T01:01:19.884Z,-1.29
2019-01-03T01:03:42.327Z,-1.32
2019-01-03T01:05:51.369Z,-1.33
2019-01-03T01:08:05.302Z,-1.33
2019-01-03T01:10:07.062Z,-1.30
2019-01-03T01:12:08.849Z,-1.26
2019-01-03T01:14:16.233Z,-1.25
2019-01-03T01:16:33.503Z,-1.27
2019-01-03T01:18:29.171Z,-1.19
2019-01-03T01:20:44.205Z,-1.22
2019-01-03T01:22:38.554Z,-1.32
2019-01-03T01:24:29.438Z,-1.34
2019-01-03T01:26:32.512Z,-1.33
2019-01-03T01:28:28.560Z,-1.28
2019-01-03T01:30:28.358Z,-1.25
2019-01-03T01:32:39.108Z,-1.23
2019-01-03T01:34:32.392Z,-1.19
2019-01-03T01:36:50.982Z,-1.14
2019-01-03T01:38:51.476Z,-1.15
2019-01-03T01:41:04.995Z,-1.15
2019-01-03T01:43:16.410Z,-1.20
2019-01-03T01:45:20.447Z,-1.22
2019-01-03T01:47:24.508Z,-1.22
2019-01-03T01:49:33.540Z,-1.19
2019-01-03T01:51:43.174Z,-1.17
2019-01-03T01:54:00.848Z,-1.11
2019-01-03T01:56:05.775Z,-1.04
2019-01-03T01:58:16.614Z,-1.11
2019-01-03T02:00:28.248Z,-1.15
2019-01-03T02:02:30.796Z,-1.09
2019-01-03T02:04:30.297Z,-1.07
2019-01-03T02:06:28.200Z,-1.10
2019-01-03T02:08:21.532Z,-1.11
2019-01-03T02:10:27.882Z,-1.10
2019-01-03T02:12:21.731Z,-1.10
2019-01-03T02:14:19.994Z,-1.07
2019-01-03T02:16:28.142Z,-1.05
2019-01-03T02:20:01.452Z,-1.07
2019-01-03T02:21:56.795Z,-0.98
2019-01-03T02:23:51.399Z,-1.03
2019-01-03T02:25:49.211Z,-1.02
2019-01-03T02:27:42.625Z,-1.08
2019-01-03T02:29:39.309Z,-1.07
2019-01-03T02:31:33.931Z,-0.99
2019-01-03T02:33:38.798Z,-0.99
2019-01-03T02:35:34.345Z,-0.89
2019-01-03T02:37:27.336Z,-0.93
2019-01-03T02:39:21.212Z,-0.92
2019-01-03T02:41:30.390Z,-0.89
2019-01-03T02:43:24.983Z,-0.91
2019-01-03T02:45:22.155Z,-0.91
2019-01-03T02:47:24.797Z,-0.91
2019-01-03T02:49:18.407Z,-0.94
2019-01-03T02:51:11.336Z,-0.91
2019-01-03T02:53:11.345Z,-0.97
2019-01-03T02:55:11.700Z,-0.96
2019-01-03T02:57:17.717Z,-0.89
2019-01-03T02:59:21.048Z,-0.93
2019-01-03T03:01:12.282Z,-0.90
2019-01-03T03:03:05.280Z,-0.88
2019-01-03T03:05:02.500Z,-0.89
2019-01-03T03:07:08.309Z,-0.83
2019-01-03T03:09:02.599Z,-0.84
2019-01-03T03:10:59.762Z,-0.86
2019-01-03T03:12:56.931Z,-0.87
2019-01-03T03:14:51.332Z,-0.79
2019-01-03T03:16:57.526Z,-0.73
2019-01-03T03:18:49.387Z,-0.79
2019-01-03T03:20:46.670Z,-0.82
2019-01-03T03:22:39.493Z,-0.85
2019-01-03T03:24:33.421Z,-0.86
2019-01-03T03:26:26.948Z,-0.85
2019-01-03T03:28:19.922Z,-0.84
2019-01-03T03:30:26.971Z,-0.83
2019-01-03T03:32:48.234Z,-0.82
2019-01-03T03:34:50.389Z,-0.84
2019-01-03T03:36:52.112Z,-0.81
2019-01-03T03:38:46.450Z,-0.81
2019-01-03T03:40:38.968Z,-0.78
2019-01-03T03:42:39.416Z,-0.75
2019-01-03T03:44:52.040Z,-0.76
2019-01-03T03:46:43.337Z,-0.77
2019-01-03T03:48:38.013Z,-0.75
2019-01-03T03:50:34.437Z,-0.81
2019-01-03T03:52:41.019Z,-0.74
2019-01-03T03:54:48.145Z,-0.76
2019-01-03T03:56:42.030Z,-0.67
2019-01-03T03:58:48.440Z,-0.69
2019-01-03T04:01:01.736Z,-0.66
2019-01-03T04:02:53.902Z,-0.64
2019-01-03T04:04:47.987Z,-0.56
2019-01-03T04:06:56.774Z,-0.48
2019-01-03T04:09:06.161Z,-0.50
2019-01-03T04:10:58.826Z,-0.37
2019-01-03T04:12:59.243Z,-0.39
2019-01-03T04:14:51.866Z,-0.44
2019-01-03T04:16:53.226Z,-0.47
2019-01-03T04:18:46.239Z,-0.46
2019-01-03T04:20:32.433Z,-0.50
2019-01-03T04:22:28.049Z,-0.51
2019-01-03T04:24:20.952Z,-0.49
2019-01-03T04:26:29.924Z,-0.50
2019-01-03T04:28:28.336Z,-0.48
2019-01-03T04:30:20.654Z,-0.48
2019-01-03T04:32:34.261Z,-0.49
2019-01-03T04:34:23.276Z,-0.52
2019-01-03T04:36:29.653Z,-0.51
2019-01-03T04:38:22.932Z,-0.47
2019-01-03T04:40:17.194Z,-0.45
2019-01-03T04:42:09.659Z,-0.43
2019-01-03T04:44:02.340Z,-0.44
2019-01-03T04:45:57.533Z,-0.42
2019-01-03T04:47:47.684Z,-0.44
2019-01-03T04:49:59.051Z,-0.48
2019-01-03T04:52:02.074Z,-0.48
2019-01-03T04:53:56.404Z,-0.47
2019-01-03T04:55:56.656Z,-0.42
2019-01-03T04:58:00.116Z,-0.46
2019-01-03T05:00:04.440Z,-0.45
2019-01-03T05:02:11.524Z,-0.41
2019-01-03T05:04:16.473Z,-0.47
2019-01-03T05:06:13.442Z,-0.46
2019-01-03T05:08:05.851Z,-0.45
2019-01-03T05:09:57.764Z,-0.43
2019-01-03T05:11:58.860Z,-0.40
2019-01-03T05:13:55.772Z,-0.43
2019-01-03T05:15:57.024Z,-0.45
2019-01-03T05:17:59.907Z,-0.43
2019-01-03T05:20:02.735Z,-0.44
2019-01-03T05:21:59.129Z,-0.40
2019-01-03T05:23:57.121Z,-0.39
2019-01-03T05:26:01.196Z,-0.39
2019-01-03T05:28:01.590Z,-0.39
2019-01-03T05:30:05.258Z,-0.37
2019-01-03T05:32:08.582Z,-0.38
2019-01-03T05:34:02.514Z,-0.38
2019-01-03T05:35:55.425Z,-0.38
2019-01-03T05:37:47.984Z,-0.37
2019-01-03T05:39:53.989Z,-0.35
2019-01-03T05:41:46.947Z,-0.34
2019-01-03T05:43:50.529Z,-0.33
2019-01-03T05:45:58.665Z,-0.30
2019-01-03T05:47:53.139Z,-0.26
2019-01-03T05:49:54.820Z,-0.26
2019-01-03T05:51:51.499Z,-0.27
2019-01-03T05:53:48.742Z,-0.23
2019-01-03T05:55:57.689Z,-0.24
2019-01-03T05:58:03.805Z,-0.23
2019-01-03T05:59:57.888Z,-0.24
2019-01-03T06:02:11.170Z,-0.24
2019-01-03T06:04:17.664Z,-0.21
2019-01-03T06:06:30.434Z,-0.21
2019-01-03T06:08:39.492Z,-0.21
2019-01-03T06:10:48.555Z,-0.23
2019-01-03T06:12:42.541Z,-0.21
2019-01-03T06:14:43.633Z,-0.17
2019-01-03T06:16:54.583Z,-0.17
2019-01-03T06:18:52.257Z,-0.17
2019-01-03T06:20:40.042Z,-0.16
2019-01-03T06:22:34.333Z,-0.13
2019-01-03T06:24:43.947Z,-0.08
2019-01-03T06:26:38.226Z,-0.07
2019-01-03T06:28:41.153Z,-0.13
2019-01-03T06:30:53.425Z,-0.14
2019-01-03T06:32:59.103Z,-0.11
2019-01-03T06:34:51.565Z,-0.12
2019-01-03T06:36:44.448Z,-0.10
2019-01-03T06:38:38.513Z,-0.10
2019-01-03T06:40:31.099Z,-0.09
2019-01-03T06:42:43.699Z,-0.11
2019-01-03T06:44:35.910Z,-0.09
2019-01-03T06:46:28.479Z,-0.09
2019-01-03T06:48:22.793Z,-0.08
2019-01-03T06:50:28.564Z,-0.09
2019-01-03T06:52:22.572Z,-0.03
2019-01-03T06:54:19.902Z,-0.09
2019-01-03T06:56:20.213Z,-0.10
2019-01-03T06:58:13.060Z,-0.10
2019-01-03T07:00:06.092Z,-0.13
2019-01-03T07:02:05.926Z,-0.12
2019-01-03T07:04:15.628Z,-0.09
2019-01-03T07:06:08.136Z,-0.09
2019-01-03T07:08:07.931Z,-0.10
2019-01-03T07:10:00.915Z,-0.13
2019-01-03T07:12:03.744Z,-0.12
2019-01-03T07:14:00.509Z,-0.12
2019-01-03T07:16:09.599Z,-0.11
2019-01-03T07:18:02.759Z,-0.09
2019-01-03T07:20:00.084Z,-0.08
2019-01-03T07:21:55.086Z,-0.08
2019-01-03T07:24:04.553Z,-0.08
2019-01-03T07:25:56.909Z,-0.07
2019-01-03T07:28:01.077Z,-0.06
2019-01-03T07:29:54.296Z,-0.04
2019-01-03T07:31:57.681Z,-0.04
2019-01-03T07:33:52.029Z,-0.06
2019-01-03T07:35:46.319Z,-0.08
2019-01-03T07:37:40.386Z,-0.07
2019-01-03T07:39:34.649Z,-0.05
2019-01-03T07:41:41.553Z,-0.05
2019-01-03T07:43:35.552Z,-0.04
2019-01-03T07:45:29.661Z,-0.01
2019-01-03T07:47:35.838Z,-0.02
2019-01-03T07:49:41.760Z,-0.03
2019-01-03T07:51:39.937Z,-0.03
2019-01-03T07:53:33.118Z,-0.02
2019-01-03T07:55:31.205Z,-0.01
2019-01-03T07:57:34.442Z,0.00
2019-01-03T07:59:31.789Z,-0.01
2019-01-03T08:01:25.813Z,0.02
2019-01-03T08:03:34.943Z,0.06
2019-01-03T08:05:37.778Z,0.07
2019-01-03T08:07:31.706Z,0.08
2019-01-03T08:09:28.108Z,0.09
2019-01-03T08:11:37.489Z,0.08
2019-01-03T08:13:37.589Z,0.07
2019-01-03T08:15:39.700Z,0.10
2019-01-03T08:17:37.690Z,0.06
2019-01-03T08:19:30.999Z,0.03
2019-01-03T08:21:20.602Z,0.03
2019-01-03T08:23:33.994Z,0.03
2019-01-03T08:25:42.882Z,0.10
2019-01-03T08:27:35.683Z,0.08
2019-01-03T08:29:31.836Z,0.07
2019-01-03T08:31:44.042Z,0.06
2019-01-03T08:33:42.026Z,0.07
2019-01-03T08:35:42.292Z,0.08
2019-01-03T08:37:35.377Z,0.11
2019-01-03T08:39:28.521Z,0.12
2019-01-03T08:41:24.016Z,0.13
2019-01-03T08:43:27.112Z,0.16
2019-01-03T08:45:33.713Z,0.17
2019-01-03T08:47:41.488Z,0.22
2019-01-03T08:49:35.857Z,0.16
2019-01-03T08:51:29.767Z,0.16
2019-01-03T08:53:25.224Z,0.23
2019-01-03T08:55:34.041Z,0.35
2019-01-03T08:57:26.947Z,0.25
2019-01-03T08:59:39.954Z,0.31
2019-01-03T09:01:51.404Z,0.32
2019-01-03T09:03:54.266Z,0.28
2019-01-03T09:06:06.532Z,0.26
2019-01-03T09:08:00.044Z,0.27
2019-01-03T09:10:13.395Z,0.29
2019-01-03T09:12:08.438Z,0.34
2019-01-03T09:14:02.940Z,0.30
2019-01-03T09:16:00.439Z,0.25
2019-01-03T09:18:09.484Z,0.31
2019-01-03T09:20:09.649Z,0.28
2019-01-03T09:22:11.563Z,0.31
2019-01-03T09:24:10.420Z,0.34
2019-01-03T09:26:16.942Z,0.34
2019-01-03T09:28:10.466Z,0.30
2019-01-03T09:30:06.913Z,0.38
2019-01-03T09:32:03.038Z,0.37
2019-01-03T09:34:02.348Z,0.36
2019-01-03T09:35:55.021Z,0.31
2019-01-03T09:37:47.689Z,0.37
2019-01-03T09:39:38.420Z,0.35
2019-01-03T09:41:30.859Z,0.35
2019-01-03T09:43:42.546Z,0.46
2019-01-03T09:45:18.278Z,0.43
2019-01-03T09:46:53.783Z,0.46
2019-01-03T09:48:29.163Z,0.47
2019-01-03T09:50:06.454Z,0.41
2019-01-03T09:51:41.773Z,0.40
2019-01-03T09:53:20.178Z,0.36
2019-01-03T09:54:56.180Z,0.44
2019-01-03T09:56:32.591Z,0.49
2019-01-03T09:58:10.157Z,0.47
2019-01-03T09:59:45.445Z,0.48
2019-01-03T10:01:23.265Z,0.57
2019-01-03T10:03:02.693Z,0.58
2019-01-03T10:04:40.389Z,0.62
2019-01-03T10:06:20.727Z,0.65
2019-01-03T10:07:57.703Z,0.63
2019-01-03T10:09:33.609Z,0.56
2019-01-03T10:11:23.100Z,0.52
2019-01-03T10:12:59.226Z,0.55
2019-01-03T10:14:34.703Z,0.55
2019-01-03T10:16:10.533Z,0.54
2019-01-03T10:17:50.094Z,0.57
2019-01-03T10:19:25.991Z,0.55
2019-01-03T10:21:01.973Z,0.53
2019-01-03T10:22:40.276Z,0.49
2019-01-03T10:24:19.678Z,0.53
2019-01-03T10:25:59.468Z,0.51
2019-01-03T10:27:38.207Z,0.50
2019-01-03T10:29:14.617Z,0.57
2019-01-03T10:30:54.585Z,0.64
2019-01-03T10:32:34.897Z,0.64
2019-01-03T10:34:11.160Z,0.59
2019-01-03T10:35:47.111Z,0.54
2019-01-03T10:37:23.962Z,0.52
2019-01-03T10:39:03.931Z,0.55
2019-01-03T10:40:43.718Z,0.51
2019-01-03T10:42:23.406Z,0.52
2019-01-03T10:44:03.400Z,0.64
2019-01-03T10:45:44.336Z,0.75
2019-01-03T10:47:29.329Z,0.71
2019-01-03T10:49:11.689Z,0.68
2019-01-03T10:50:49.143Z,0.63
2019-01-03T10:52:34.180Z,0.49
2019-01-03T10:54:09.886Z,0.45
2019-01-03T10:56:08.215Z,0.48
2019-01-03T10:57:46.819Z,0.56
2019-01-03T10:59:29.397Z,0.50
2019-01-03T11:01:06.132Z,0.52
2019-01-03T11:02:48.441Z,0.53
2019-01-03T11:04:43.281Z,0.64
2019-01-03T11:06:26.407Z,0.59
2019-01-03T11:08:23.476Z,0.55
2019-01-03T11:10:01.978Z,0.55
2019-01-03T11:11:45.309Z,0.49
2019-01-03T11:15:24.449Z,0.59
2019-01-03T11:17:10.361Z,0.66
2019-01-03T11:18:49.669Z,0.76
2019-01-03T11:20:35.242Z,0.74
2019-01-03T11:22:17.424Z,0.76
2019-01-03T11:23:54.062Z,0.66
2019-01-03T11:25:32.597Z,0.62
2019-01-03T11:27:10.646Z,0.66
2019-01-03T11:28:52.779Z,0.60
2019-01-03T11:30:29.357Z,0.53
2019-01-03T11:32:07.975Z,0.53
2019-01-03T11:33:45.378Z,0.63
2019-01-03T11:35:27.099Z,0.70
2019-01-03T11:37:04.262Z,0.65
2019-01-03T11:38:40.374Z,0.61
2019-01-03T11:40:16.730Z,0.59
2019-01-03T11:41:54.256Z,0.61
2019-01-03T11:43:33.764Z,0.60
2019-01-03T11:45:12.941Z,0.67
2019-01-03T11:46:49.272Z,0.64
2019-01-03T11:48:25.069Z,0.67
2019-01-03T11:50:01.832Z,0.68
2019-01-03T11:51:39.976Z,0.80
2019-01-03T11:53:19.899Z,0.87
2019-01-03T11:54:55.166Z,0.89
2019-01-03T11:56:31.544Z,0.96
2019-01-03T11:58:08.578Z,0.96
2019-01-03T11:59:57.082Z,0.90
2019-01-03T12:01:34.228Z,0.92
2019-01-03T12:03:15.168Z,1.04
2019-01-03T12:05:04.583Z,1.10
2019-01-03T12:06:41.328Z,0.97
2019-01-03T12:08:17.277Z,0.96
2019-01-03T12:09:53.112Z,0.89
2019-01-03T12:11:33.261Z,0.93
2019-01-03T12:13:09.239Z,0.94
2019-01-03T12:14:48.404Z,0.97
2019-01-03T12:16:24.284Z,1.07
2019-01-03T12:18:05.442Z,1.01
2019-01-03T12:19:41.029Z,1.07
2019-01-03T12:21:21.318Z,1.04
2019-01-03T12:22:57.139Z,1.05
2019-01-03T12:24:34.816Z,1.06
2019-01-03T12:26:14.603Z,1.12
2019-01-03T12:27:55.093Z,0.92
2019-01-03T12:29:32.103Z,0.90
2019-01-03T12:31:09.852Z,0.85
2019-01-03T12:32:48.873Z,0.82
2019-01-03T12:34:30.010Z,0.79
2019-01-03T12:36:09.757Z,0.84
2019-01-03T12:37:45.241Z,0.85
2019-01-03T12:39:29.833Z,0.84
2019-01-03T12:41:06.881Z,0.91
2019-01-03T12:42:43.951Z,0.90
2019-01-03T12:44:23.864Z,0.93
2019-01-03T12:45:59.360Z,0.96
2019-01-03T12:47:35.070Z,0.96
2019-01-03T12:49:14.639Z,1.00
2019-01-03T12:50:57.095Z,0.99
2019-01-03T12:52:33.022Z,1.02
2019-01-03T12:54:14.106Z,1.07
2019-01-03T12:55:49.826Z,1.06
2019-01-03T12:57:27.377Z,1.08
2019-01-03T12:59:03.025Z,1.03
2019-01-03T13:00:40.955Z,1.10
2019-01-03T13:02:16.449Z,1.04
2019-01-03T13:03:53.558Z,1.01
2019-01-03T13:05:40.616Z,1.02
2019-01-03T13:07:19.451Z,0.99
2019-01-03T13:08:59.714Z,0.95
2019-01-03T13:10:35.780Z,1.01
2019-01-03T13:12:15.390Z,0.98
2019-01-03T13:13:52.599Z,0.92
2019-01-03T13:15:31.338Z,0.87
2019-01-03T13:17:09.767Z,0.82
2019-01-03T13:18:48.226Z,0.83
2019-01-03T13:20:24.477Z,0.83
2019-01-03T13:22:02.715Z,0.80
2019-01-03T13:23:41.624Z,0.80
2019-01-03T13:25:21.412Z,0.77
2019-01-03T13:26:59.450Z,0.78
2019-01-03T13:28:44.330Z,0.77
2019-01-03T13:30:25.942Z,0.77
2019-01-03T13:32:02.103Z,0.81
2019-01-03T13:33:41.946Z,0.79
2019-01-03T13:35:20.191Z,0.77
2019-01-03T13:36:56.381Z,0.79
2019-01-03T13:38:35.980Z,0.74
2019-01-03T13:40:17.523Z,0.71
2019-01-03T13:41:55.322Z,0.75
2019-01-03T13:43:33.992Z,0.74
2019-01-03T13:45:09.838Z,0.79
2019-01-03T13:46:45.376Z,0.72
2019-01-03T13:48:33.431Z,0.69
2019-01-03T13:50:09.794Z,0.68
2019-01-03T13:51:47.016Z,0.67
2019-01-03T13:53:26.884Z,0.70
2019-01-03T13:55:03.193Z,0.69
2019-01-03T13:56:38.622Z,0.70
2019-01-03T13:58:14.681Z,0.69
2019-01-03T13:59:50.498Z,0.75
2019-01-03T14:01:32.817Z,0.75
2019-01-03T14:03:15.563Z,0.84
2019-01-03T14:04:59.555Z,0.93
2019-01-03T14:06:45.361Z,0.93
2019-01-03T14:08:20.995Z,0.86
2019-01-03T14:09:57.162Z,0.93
2019-01-03T14:11:36.432Z,1.00
2019-01-03T14:13:16.336Z,0.96
2019-01-03T14:14:59.672Z,0.97
2019-01-03T14:16:39.224Z,0.85
2019-01-03T14:18:17.798Z,0.80
2019-01-03T14:19:57.449Z,0.85
2019-01-03T14:21:45.032Z,0.83
2019-01-03T14:23:49.287Z,0.74
2019-01-03T14:25:27.137Z,0.77
2019-01-03T14:27:26.942Z,0.75
2019-01-03T14:29:18.147Z,0.77
2019-01-03T14:30:54.856Z,0.83
2019-01-03T14:32:34.343Z,0.75
2019-01-03T14:34:17.546Z,0.70
2019-01-03T14:36:06.873Z,0.69
2019-01-03T14:37:51.614Z,0.68
2019-01-03T14:39:39.022Z,0.69
2019-01-03T14:41:21.154Z,0.71
2019-01-03T14:43:12.830Z,0.72
2019-01-03T14:44:52.443Z,0.80
2019-01-03T14:46:38.285Z,0.76
2019-01-03T14:48:18.360Z,0.76
2019-01-03T14:50:10.418Z,0.79
2019-01-03T14:51:57.372Z,0.76
2019-01-03T14:53:39.571Z,0.77
2019-01-03T14:55:17.215Z,0.82
2019-01-03T14:56:54.870Z,0.84
2019-01-03T14:58:30.614Z,0.78
2019-01-03T15:00:08.892Z,0.77
2019-01-03T15:01:47.083Z,0.80
2019-01-03T15:03:24.169Z,0.89
2019-01-03T15:05:00.639Z,0.85
2019-01-03T15:06:38.449Z,0.79
2019-01-03T15:08:18.131Z,0.76
2019-01-03T15:10:03.589Z,0.79
2019-01-03T15:11:42.556Z,0.78
2019-01-03T15:13:22.886Z,0.79
2019-01-03T15:14:58.584Z,0.82
2019-01-03T15:16:34.508Z,0.80
2019-01-03T15:18:13.553Z,0.80
2019-01-03T15:19:53.265Z,0.79
2019-01-03T15:21:35.448Z,0.75
2019-01-03T15:23:14.438Z,0.73
2019-01-03T15:24:55.569Z,0.70
2019-01-03T15:26:33.812Z,0.68
2019-01-03T15:28:23.507Z,0.69
2019-01-03T15:30:05.671Z,0.70
2019-01-03T15:31:42.440Z,0.71
2019-01-03T15:33:18.042Z,0.71
2019-01-03T15:34:56.646Z,0.68
2019-01-03T15:36:43.290Z,0.68
2019-01-03T15:38:26.446Z,0.70
2019-01-03T15:40:04.639Z,0.68
2019-01-03T15:41:50.474Z,0.65
2019-01-03T15:43:32.373Z,0.64
2019-01-03T15:45:20.543Z,0.62
2019-01-03T15:46:56.962Z,0.62
2019-01-03T15:48:40.539Z,0.67
2019-01-03T15:50:16.516Z,0.67
2019-01-03T15:51:55.229Z,0.68
2019-01-03T15:53:33.351Z,0.69
2019-01-03T15:55:18.478Z,0.72
2019-01-03T15:57:01.614Z,0.70
2019-01-03T15:59:13.491Z,0.71
2019-01-03T16:00:53.570Z,0.69
2019-01-03T16:02:33.105Z,0.68
2019-01-03T16:04:20.896Z,0.68
2019-01-03T16:06:04.542Z,0.68
2019-01-03T16:07:45.386Z,0.68
2019-01-03T16:09:25.197Z,0.67
2019-01-03T16:11:09.749Z,0.66
2019-01-03T16:12:55.615Z,0.68
2019-01-03T16:14:32.955Z,0.67
2019-01-03T16:16:13.608Z,0.68
2019-01-03T16:17:52.384Z,0.70
2019-01-03T16:19:32.477Z,0.67
2019-01-03T16:21:08.888Z,0.69
2019-01-03T16:22:46.737Z,0.70
2019-01-03T16:24:23.310Z,0.70
2019-01-03T16:26:00.327Z,0.70
2019-01-03T16:27:38.254Z,0.74
2019-01-03T16:29:14.114Z,0.74
2019-01-03T16:31:01.508Z,0.71
2019-01-03T16:32:43.743Z,0.70
2019-01-03T16:34:19.560Z,0.70
2019-01-03T16:36:01.925Z,0.71
2019-01-03T16:37:40.379Z,0.73
2019-01-03T16:39:18.304Z,0.69
2019-01-03T16:41:03.494Z,0.70
2019-01-03T16:42:50.001Z,0.70
2019-01-03T16:44:29.971Z,0.73
2019-01-03T16:46:10.454Z,0.73
2019-01-03T16:47:48.090Z,0.74
2019-01-03T16:49:27.744Z,0.74
2019-01-03T16:51:05.180Z,0.82
2019-01-03T16:52:47.738Z,0.80
2019-01-03T16:54:24.340Z,0.80
2019-01-03T16:56:04.342Z,0.81
2019-01-03T16:57:44.141Z,0.84
2019-01-03T16:59:26.622Z,0.79
2019-01-03T17:01:05.454Z,0.79
2019-01-03T17:02:43.934Z,0.76
2019-01-03T17:04:21.578Z,0.78
2019-01-03T17:05:58.813Z,0.77
2019-01-03T17:07:41.808Z,0.77
2019-01-03T17:09:26.017Z,0.76
2019-01-03T17:11:05.669Z,0.70
2019-01-03T17:12:55.654Z,0.68
2019-01-03T17:14:44.532Z,0.64
2019-01-03T17:16:21.626Z,0.63
2019-01-03T17:17:57.535Z,0.58
2019-01-03T17:19:36.753Z,0.58
2019-01-03T17:21:13.029Z,0.54
2019-01-03T17:22:53.546Z,0.54
2019-01-03T17:24:32.875Z,0.55
2019-01-03T17:26:18.950Z,0.56
2019-01-03T17:28:13.466Z,0.59
2019-01-03T17:29:52.670Z,0.59
2019-01-03T17:31:31.516Z,0.61
2019-01-03T17:33:11.914Z,0.61
2019-01-03T17:34:55.826Z,0.64
2019-01-03T17:36:53.773Z,0.61
2019-01-03T17:38:28.335Z,0.61
2019-01-03T17:40:10.322Z,0.66
2019-01-03T17:41:51.809Z,0.65
2019-01-03T17:43:43.633Z,0.67
2019-01-03T17:45:21.766Z,0.65
2019-01-03T17:46:59.773Z,0.70
2019-01-03T17:49:06.426Z,0.69
2019-01-03T17:50:46.414Z,0.70
2019-01-03T17:52:26.298Z,0.79
2019-01-03T17:54:08.879Z,0.71
2019-01-03T17:56:00.989Z,0.72
2019-01-03T17:57:43.775Z,0.72
2019-01-03T17:59:22.255Z,0.71
2019-01-03T18:00:59.507Z,0.74
2019-01-03T18:02:41.809Z,0.76
2019-01-03T18:04:22.358Z,0.77
2019-01-03T18:06:09.308Z,0.77
2019-01-03T18:07:59.048Z,0.77
2019-01-03T18:10:12.218Z,0.76
2019-01-03T18:12:12.333Z,0.77
2019-01-03T18:14:19.290Z,0.77
2019-01-03T18:18:09.905Z,0.80
2019-01-03T18:20:08.312Z,0.82
2019-01-03T18:22:12.510Z,0.82
2019-01-03T18:24:28.292Z,0.94
2019-01-03T18:26:13.917Z,0.90
2019-01-03T18:28:00.189Z,0.86
2019-01-03T18:29:43.824Z,0.82
2019-01-03T18:31:23.917Z,0.81
2019-01-03T18:33:13.550Z,0.82
2019-01-03T18:34:56.166Z,0.86
2019-01-03T18:36:41.482Z,0.84
2019-01-03T18:38:23.093Z,0.86
2019-01-03T18:40:17.249Z,0.93
2019-01-03T18:42:05.963Z,0.93
2019-01-03T18:43:48.923Z,0.94
2019-01-03T18:46:02.161Z,0.98
2019-01-03T18:47:46.111Z,0.97
2019-01-03T18:49:39.705Z,0.88
2019-01-03T18:51:27.595Z,0.88
2019-01-03T18:53:17.677Z,0.88
2019-01-03T18:55:06.115Z,0.84
2019-01-03T18:56:47.744Z,0.85
2019-01-03T18:58:25.665Z,0.80
2019-01-03T19:00:06.259Z,0.76
2019-01-03T19:01:45.552Z,0.82
2019-01-03T19:03:26.978Z,0.82
2019-01-03T19:05:05.121Z,0.78
2019-01-03T19:06:41.252Z,0.78
2019-01-03T19:08:19.636Z,0.78
2019-01-03T19:10:10.114Z,0.80
2019-01-03T19:11:47.550Z,0.91
2019-01-03T19:13:24.996Z,0.86
2019-01-03T19:15:03.737Z,0.81
2019-01-03T19:16:41.879Z,0.80
2019-01-03T19:18:21.408Z,0.83
2019-01-03T19:20:00.250Z,0.80
2019-01-03T19:21:41.361Z,0.79
2019-01-03T19:23:18.122Z,0.84
2019-01-03T19:24:58.011Z,0.76
2019-01-03T19:26:48.160Z,0.75
2019-01-03T19:28:25.668Z,0.83
2019-01-03T19:30:09.877Z,0.84
2019-01-03T19:31:58.297Z,0.86
2019-01-03T19:33:35.256Z,0.78
2019-01-03T19:35:20.350Z,0.80
2019-01-03T19:37:03.598Z,0.76
2019-01-03T19:38:46.908Z,0.75
2019-01-03T19:40:25.265Z,0.79
2019-01-03T19:42:19.580Z,0.73
2019-01-03T19:44:15.438Z,0.79
2019-01-03T19:46:09.080Z,0.83
2019-01-03T19:48:00.535Z,0.81
2019-01-03T19:49:41.404Z,0.81
2019-01-03T19:51:32.359Z,0.81
2019-01-03T19:53:13.857Z,0.74
2019-01-03T19:57:29.312Z,0.74
2019-01-03T19:59:24.184Z,0.76
2019-01-03T20:01:11.865Z,0.81
2019-01-03T20:02:56.682Z,0.76
2019-01-03T20:04:40.273Z,0.76
2019-01-03T20:06:31.092Z,0.74
2019-01-03T20:08:16.386Z,0.76
2019-01-03T20:10:00.275Z,0.69
2019-01-03T20:11:43.115Z,0.73
2019-01-03T20:13:23.607Z,0.70
2019-01-03T20:15:10.559Z,0.69
2019-01-03T20:17:02.942Z,0.73
2019-01-03T20:19:01.276Z,0.69
2019-01-03T20:20:52.981Z,0.69
2019-01-03T20:22:33.523Z,0.71
2019-01-03T20:24:20.578Z,0.69
2019-01-03T20:26:05.810Z,0.71
2019-01-03T20:27:51.459Z,0.74
2019-01-03T20:29:27.598Z,0.68
2019-01-03T20:31:18.393Z,0.68
2019-01-03T20:33:01.661Z,0.65
2019-01-03T20:34:46.620Z,0.74
2019-01-03T20:36:45.214Z,0.73
2019-01-03T20:38:30.059Z,0.70
2019-01-03T20:40:13.371Z,0.75
2019-01-03T20:42:06.649Z,0.77
2019-01-03T20:43:51.508Z,0.77
2019-01-03T20:45:31.015Z,0.79
2019-01-03T20:47:14.761Z,0.75
2019-01-03T20:49:06.775Z,0.71
2019-01-03T20:50:48.544Z,0.69
2019-01-03T20:52:35.225Z,0.76
2019-01-03T20:54:30.582Z,0.75
2019-01-03T20:56:09.548Z,0.79
2019-01-03T20:57:52.348Z,0.81
2019-01-03T20:59:40.377Z,0.73
2019-01-03T21:01:22.463Z,0.81
2019-01-03T21:02:59.325Z,0.82
2019-01-03T21:04:44.555Z,0.73
2019-01-03T21:08:29.818Z,0.71
2019-01-03T21:10:13.318Z,0.76
2019-01-03T21:11:58.418Z,0.69
2019-01-03T21:13:38.793Z,0.67
2019-01-03T21:15:37.534Z,0.65
2019-01-03T21:17:33.459Z,0.72
2019-01-03T21:19:23.299Z,0.69
2019-01-03T21:21:23.410Z,0.62
2019-01-03T21:23:03.107Z,0.64
2019-01-03T21:24:44.336Z,0.67
2019-01-03T21:26:25.184Z,0.64
2019-01-03T21:28:03.453Z,0.60
2019-01-03T21:29:46.764Z,0.66
2019-01-03T21:31:37.221Z,0.65
2019-01-03T21:33:26.061Z,0.59
2019-01-03T21:35:04.744Z,0.60
2019-01-03T21:36:45.273Z,0.59
2019-01-03T21:38:22.481Z,0.57
2019-01-03T21:40:23.445Z,0.66
2019-01-03T21:42:00.747Z,0.61
2019-01-03T21:43:43.421Z,0.60
2019-01-03T21:45:22.445Z,0.60
2019-01-03T21:47:06.956Z,0.61
2019-01-03T21:48:46.360Z,0.62
2019-01-03T21:50:31.379Z,0.61
2019-01-03T21:52:17.383Z,0.57
2019-01-03T21:53:56.701Z,0.56
2019-01-03T21:55:39.573Z,0.58
2019-01-03T21:57:22.518Z,0.57
2019-01-03T21:59:04.833Z,0.61
2019-01-03T22:00:41.982Z,0.61
2019-01-03T22:02:20.483Z,0.59
2019-01-03T22:04:03.547Z,0.61
2019-01-03T22:05:39.060Z,0.64
2019-01-03T22:07:24.323Z,0.59
2019-01-03T22:09:13.683Z,0.56
2019-01-03T22:10:47.873Z,0.67
2019-01-03T22:12:33.322Z,0.70
2019-01-03T22:14:13.521Z,0.61
2019-01-03T22:15:59.313Z,0.61
2019-01-03T22:17:40.478Z,0.61
2019-01-03T22:19:19.327Z,0.62
2019-01-03T22:21:09.875Z,0.67
2019-01-03T22:22:51.706Z,0.65
2019-01-03T22:24:31.811Z,0.63
2019-01-03T22:26:13.104Z,0.58
2019-01-03T22:27:53.180Z,0.60
2019-01-03T22:29:37.605Z,0.62
2019-01-03T22:31:14.805Z,0.54
2019-01-03T22:32:56.414Z,0.62
2019-01-03T22:34:36.198Z,0.62
2019-01-03T22:36:15.292Z,0.61
2019-01-03T22:37:55.020Z,0.63
2019-01-03T22:39:38.950Z,0.62
2019-01-03T22:41:18.793Z,0.54
2019-01-03T22:42:54.163Z,0.53
2019-01-03T22:44:35.657Z,0.53
2019-01-03T22:46:12.712Z,0.58
2019-01-03T22:47:51.773Z,0.63
2019-01-03T22:49:27.160Z,0.63
2019-01-03T22:51:03.715Z,0.59
2019-01-03T22:52:41.383Z,0.57
2019-01-03T22:54:17.485Z,0.67
2019-01-03T22:55:54.923Z,0.68
2019-01-03T22:57:31.904Z,0.69
2019-01-03T22:59:13.073Z,0.67
2019-01-03T23:00:57.452Z,0.64
2019-01-03T23:02:39.519Z,0.68
2019-01-03T23:04:20.206Z,0.71
2019-01-03T23:05:57.494Z,0.70
2019-01-03T23:07:33.754Z,0.71
2019-01-03T23:09:13.378Z,0.71
2019-01-03T23:11:04.185Z,0.71
2019-01-03T23:12:44.366Z,0.71
2019-01-03T23:14:27.933Z,0.74
2019-01-03T23:16:06.274Z,0.80
2019-01-03T23:17:43.930Z,0.79
2019-01-03T23:19:25.212Z,0.75
2019-01-03T23:21:13.320Z,0.83
2019-01-03T23:22:50.739Z,0.75
2019-01-03T23:24:28.410Z,0.71
2019-01-03T23:26:12.231Z,0.66
2019-01-03T23:28:04.719Z,0.65
2019-01-03T23:29:42.550Z,0.61
2019-01-03T23:31:21.503Z,0.57
2019-01-03T23:33:06.440Z,0.54
2019-01-03T23:34:48.142Z,0.47
2019-01-03T23:36:34.888Z,0.40
2019-01-03T23:38:11.883Z,0.34
2019-01-03T23:39:54.444Z,0.29
2019-01-03T23:41:31.722Z,0.24
2019-01-03T23:43:09.580Z,0.23
2019-01-03T23:45:18.852Z,0.20
2019-01-03T23:46:55.598Z,0.19
2019-01-03T23:48:36.322Z,0.13
2019-01-03T23:50:13.234Z,0.09
2019-01-03T23:51:50.499Z,0.08
2019-01-03T23:53:26.025Z,0.07
2019-01-03T23:55:12.420Z,0.05
2019-01-03T23:56:51.096Z,0.03
2019-01-03T23:58:30.300Z,0.03
